sensor_id;sensor_type;location;lat;lon;timestamp;P1;durP1;ratioP1;P2;durP2;ratioP2
13969;SDS011;7057;49.984;8.404;2024-02-21T00:01:15;14.20;;;6.80;;
13969;SDS011;7057;49.984;8.404;2024-02-21T00:03:43;16.40;;;6.77;;
13969;SDS011;7057;49.984;8.404;2024-02-21T00:06:10;18.43;;;6.90;;
13969;SDS011;7057;49.984;8.404;2024-02-21T00:08:38;16.20;;;6.73;;
13969;SDS011;7057;49.984;8.404;2024-02-21T00:11:05;17.30;;;6.93;;
13969;SDS011;7057;49.984;8.404;2024-02-21T00:13:33;13.83;;;6.70;;
13969;SDS011;7057;49.984;8.404;2024-02-21T00:16:02;17.63;;;7.30;;
13969;SDS011;7057;49.984;8.404;2024-02-21T00:18:29;17.23;;;6.83;;
13969;SDS011;7057;49.984;8.404;2024-02-21T00:20:57;16.63;;;7.50;;
13969;SDS011;7057;49.984;8.404;2024-02-21T00:23:27;18.70;;;7.27;;
13969;SDS011;7057;49.984;8.404;2024-02-21T00:25:54;15.23;;;7.50;;
13969;SDS011;7057;49.984;8.404;2024-02-21T00:28:22;17.90;;;7.23;;
13969;SDS011;7057;49.984;8.404;2024-02-21T00:30:49;15.73;;;7.30;;
13969;SDS011;7057;49.984;8.404;2024-02-21T00:33:19;13.93;;;7.20;;
13969;SDS011;7057;49.984;8.404;2024-02-21T00:35:47;20.27;;;8.23;;
13969;SDS011;7057;49.984;8.404;2024-02-21T00:38:14;17.10;;;7.97;;
13969;SDS011;7057;49.984;8.404;2024-02-21T00:40:42;20.93;;;8.00;;
13969;SDS011;7057;49.984;8.404;2024-02-21T00:43:09;14.63;;;8.10;;
13969;SDS011;7057;49.984;8.404;2024-02-21T00:45:37;20.40;;;8.60;;
13969;SDS011;7057;49.984;8.404;2024-02-21T00:48:05;16.43;;;8.27;;
13969;SDS011;7057;49.984;8.404;2024-02-21T00:50:34;16.40;;;8.27;;
13969;SDS011;7057;49.984;8.404;2024-02-21T00:53:03;18.60;;;8.63;;
13969;SDS011;7057;49.984;8.404;2024-02-21T00:55:30;18.73;;;8.37;;
13969;SDS011;7057;49.984;8.404;2024-02-21T00:57:58;13.23;;;7.97;;
13969;SDS011;7057;49.984;8.404;2024-02-21T01:00:25;17.57;;;8.33;;
13969;SDS011;7057;49.984;8.404;2024-02-21T01:02:53;16.27;;;7.97;;
13969;SDS011;7057;49.984;8.404;2024-02-21T01:05:20;17.27;;;8.80;;
13969;SDS011;7057;49.984;8.404;2024-02-21T01:07:49;16.93;;;7.97;;
13969;SDS011;7057;49.984;8.404;2024-02-21T01:10:17;16.03;;;9.27;;
13969;SDS011;7057;49.984;8.404;2024-02-21T01:12:44;17.93;;;8.33;;
13969;SDS011;7057;49.984;8.404;2024-02-21T01:15:12;16.07;;;7.80;;
13969;SDS011;7057;49.984;8.404;2024-02-21T01:17:39;16.53;;;8.70;;
13969;SDS011;7057;49.984;8.404;2024-02-21T01:20:07;15.57;;;8.03;;
13969;SDS011;7057;49.984;8.404;2024-02-21T01:22:35;17.83;;;8.53;;
13969;SDS011;7057;49.984;8.404;2024-02-21T01:25:04;15.70;;;8.40;;
13969;SDS011;7057;49.984;8.404;2024-02-21T01:27:32;17.67;;;8.50;;
13969;SDS011;7057;49.984;8.404;2024-02-21T01:29:59;17.00;;;8.33;;
13969;SDS011;7057;49.984;8.404;2024-02-21T01:32:27;13.63;;;7.47;;
13969;SDS011;7057;49.984;8.404;2024-02-21T01:34:54;18.50;;;8.00;;
13969;SDS011;7057;49.984;8.404;2024-02-21T01:37:22;14.40;;;7.73;;
13969;SDS011;7057;49.984;8.404;2024-02-21T01:39:49;15.00;;;7.90;;
13969;SDS011;7057;49.984;8.404;2024-02-21T01:42:18;16.17;;;7.80;;
13969;SDS011;7057;49.984;8.404;2024-02-21T01:44:46;13.20;;;7.00;;
13969;SDS011;7057;49.984;8.404;2024-02-21T01:47:13;14.10;;;7.63;;
13969;SDS011;7057;49.984;8.404;2024-02-21T01:49:41;15.03;;;7.50;;
13969;SDS011;7057;49.984;8.404;2024-02-21T01:52:09;15.63;;;7.50;;
13969;SDS011;7057;49.984;8.404;2024-02-21T01:54:39;15.50;;;8.00;;
13969;SDS011;7057;49.984;8.404;2024-02-21T01:57:06;17.20;;;7.70;;
13969;SDS011;7057;49.984;8.404;2024-02-21T01:59:36;20.40;;;8.87;;
13969;SDS011;7057;49.984;8.404;2024-02-21T02:02:04;14.47;;;8.10;;
13969;SDS011;7057;49.984;8.404;2024-02-21T02:04:32;17.30;;;7.73;;
13969;SDS011;7057;49.984;8.404;2024-02-21T02:07:00;14.93;;;7.03;;
13969;SDS011;7057;49.984;8.404;2024-02-21T02:09:29;13.93;;;6.87;;
13969;SDS011;7057;49.984;8.404;2024-02-21T02:11:57;14.13;;;6.60;;
13969;SDS011;7057;49.984;8.404;2024-02-21T02:14:25;14.10;;;6.60;;
13969;SDS011;7057;49.984;8.404;2024-02-21T02:16:54;16.10;;;6.77;;
13969;SDS011;7057;49.984;8.404;2024-02-21T02:19:21;16.67;;;6.70;;
13969;SDS011;7057;49.984;8.404;2024-02-21T02:21:49;17.17;;;6.47;;
13969;SDS011;7057;49.984;8.404;2024-02-21T02:24:23;12.87;;;6.13;;
13969;SDS011;7057;49.984;8.404;2024-02-21T02:26:51;14.33;;;7.07;;
13969;SDS011;7057;49.984;8.404;2024-02-21T02:29:19;16.63;;;7.53;;
13969;SDS011;7057;49.984;8.404;2024-02-21T02:31:47;15.70;;;7.53;;
13969;SDS011;7057;49.984;8.404;2024-02-21T02:34:14;18.60;;;7.80;;
13969;SDS011;7057;49.984;8.404;2024-02-21T02:36:42;16.33;;;7.63;;
13969;SDS011;7057;49.984;8.404;2024-02-21T02:39:09;15.43;;;8.10;;
13969;SDS011;7057;49.984;8.404;2024-02-21T02:41:38;16.00;;;8.27;;
13969;SDS011;7057;49.984;8.404;2024-02-21T02:44:05;19.40;;;8.47;;
13969;SDS011;7057;49.984;8.404;2024-02-21T02:46:33;14.90;;;8.63;;
13969;SDS011;7057;49.984;8.404;2024-02-21T02:49:01;19.57;;;8.63;;
13969;SDS011;7057;49.984;8.404;2024-02-21T02:51:28;20.60;;;8.73;;
13969;SDS011;7057;49.984;8.404;2024-02-21T02:53:56;16.83;;;8.80;;
13969;SDS011;7057;49.984;8.404;2024-02-21T02:56:23;18.70;;;9.93;;
13969;SDS011;7057;49.984;8.404;2024-02-21T02:58:52;17.93;;;8.90;;
13969;SDS011;7057;49.984;8.404;2024-02-21T03:01:20;22.63;;;9.77;;
13969;SDS011;7057;49.984;8.404;2024-02-21T03:03:47;19.47;;;10.30;;
13969;SDS011;7057;49.984;8.404;2024-02-21T03:06:15;18.60;;;10.10;;
13969;SDS011;7057;49.984;8.404;2024-02-21T03:08:42;24.27;;;10.50;;
13969;SDS011;7057;49.984;8.404;2024-02-21T03:11:10;21.50;;;10.10;;
13969;SDS011;7057;49.984;8.404;2024-02-21T03:13:37;20.53;;;10.60;;
13969;SDS011;7057;49.984;8.404;2024-02-21T03:16:06;16.63;;;9.83;;
13969;SDS011;7057;49.984;8.404;2024-02-21T03:18:34;17.70;;;9.53;;
13969;SDS011;7057;49.984;8.404;2024-02-21T03:21:02;20.50;;;10.67;;
13969;SDS011;7057;49.984;8.404;2024-02-21T03:23:29;18.77;;;10.23;;
13969;SDS011;7057;49.984;8.404;2024-02-21T03:25:57;21.50;;;10.10;;
13969;SDS011;7057;49.984;8.404;2024-02-21T03:28:24;21.47;;;10.27;;
13969;SDS011;7057;49.984;8.404;2024-02-21T03:30:52;14.67;;;9.57;;
13969;SDS011;7057;49.984;8.404;2024-02-21T03:33:21;19.03;;;10.10;;
13969;SDS011;7057;49.984;8.404;2024-02-21T03:35:49;18.63;;;9.43;;
13969;SDS011;7057;49.984;8.404;2024-02-21T03:38:16;18.80;;;9.40;;
13969;SDS011;7057;49.984;8.404;2024-02-21T03:40:44;18.17;;;10.70;;
13969;SDS011;7057;49.984;8.404;2024-02-21T03:43:11;19.97;;;10.13;;
13969;SDS011;7057;49.984;8.404;2024-02-21T03:45:39;19.93;;;9.17;;
13969;SDS011;7057;49.984;8.404;2024-02-21T03:48:07;21.07;;;9.97;;
13969;SDS011;7057;49.984;8.404;2024-02-21T03:50:35;18.13;;;10.23;;
13969;SDS011;7057;49.984;8.404;2024-02-21T03:53:03;22.70;;;10.93;;
13969;SDS011;7057;49.984;8.404;2024-02-21T03:55:30;17.60;;;10.13;;
13969;SDS011;7057;49.984;8.404;2024-02-21T03:57:58;21.43;;;10.67;;
13969;SDS011;7057;49.984;8.404;2024-02-21T04:00:26;17.23;;;10.23;;
13969;SDS011;7057;49.984;8.404;2024-02-21T04:02:53;23.23;;;10.93;;
13969;SDS011;7057;49.984;8.404;2024-02-21T04:05:21;19.97;;;10.70;;
13969;SDS011;7057;49.984;8.404;2024-02-21T04:07:50;18.73;;;10.53;;
13969;SDS011;7057;49.984;8.404;2024-02-21T04:10:17;18.20;;;11.23;;
13969;SDS011;7057;49.984;8.404;2024-02-21T04:12:45;21.43;;;11.87;;
13969;SDS011;7057;49.984;8.404;2024-02-21T04:15:15;22.00;;;11.43;;
13969;SDS011;7057;49.984;8.404;2024-02-21T04:17:44;16.20;;;10.37;;
13969;SDS011;7057;49.984;8.404;2024-02-21T04:20:13;17.57;;;11.03;;
13969;SDS011;7057;49.984;8.404;2024-02-21T04:22:42;20.07;;;10.83;;
13969;SDS011;7057;49.984;8.404;2024-02-21T04:25:11;17.93;;;10.37;;
13969;SDS011;7057;49.984;8.404;2024-02-21T04:27:39;13.10;;;9.47;;
13969;SDS011;7057;49.984;8.404;2024-02-21T04:30:07;17.13;;;9.90;;
13969;SDS011;7057;49.984;8.404;2024-02-21T04:32:35;18.97;;;9.77;;
13969;SDS011;7057;49.984;8.404;2024-02-21T04:35:03;19.00;;;9.33;;
13969;SDS011;7057;49.984;8.404;2024-02-21T04:37:31;14.53;;;8.43;;
13969;SDS011;7057;49.984;8.404;2024-02-21T04:39:58;17.50;;;8.17;;
13969;SDS011;7057;49.984;8.404;2024-02-21T04:42:27;14.50;;;8.00;;
13969;SDS011;7057;49.984;8.404;2024-02-21T04:44:54;18.73;;;7.90;;
13969;SDS011;7057;49.984;8.404;2024-02-21T04:47:22;12.70;;;7.30;;
13969;SDS011;7057;49.984;8.404;2024-02-21T04:49:50;15.57;;;7.43;;
13969;SDS011;7057;49.984;8.404;2024-02-21T04:52:18;17.97;;;8.13;;
13969;SDS011;7057;49.984;8.404;2024-02-21T04:54:45;14.43;;;7.37;;
13969;SDS011;7057;49.984;8.404;2024-02-21T04:57:13;11.87;;;7.50;;
13969;SDS011;7057;49.984;8.404;2024-02-21T04:59:44;12.90;;;8.07;;
13969;SDS011;7057;49.984;8.404;2024-02-21T05:02:12;15.07;;;8.37;;
13969;SDS011;7057;49.984;8.404;2024-02-21T05:04:42;14.80;;;8.23;;
13969;SDS011;7057;49.984;8.404;2024-02-21T05:07:09;15.00;;;9.00;;
13969;SDS011;7057;49.984;8.404;2024-02-21T05:09:37;13.33;;;8.40;;
13969;SDS011;7057;49.984;8.404;2024-02-21T05:12:05;19.13;;;8.80;;
13969;SDS011;7057;49.984;8.404;2024-02-21T05:14:32;16.50;;;9.27;;
13969;SDS011;7057;49.984;8.404;2024-02-21T05:17:01;16.00;;;9.00;;
13969;SDS011;7057;49.984;8.404;2024-02-21T05:19:29;17.70;;;9.03;;
13969;SDS011;7057;49.984;8.404;2024-02-21T05:21:56;16.10;;;9.23;;
13969;SDS011;7057;49.984;8.404;2024-02-21T05:24:24;14.10;;;8.87;;
13969;SDS011;7057;49.984;8.404;2024-02-21T05:26:51;18.67;;;10.13;;
13969;SDS011;7057;49.984;8.404;2024-02-21T05:29:19;17.80;;;9.00;;
13969;SDS011;7057;49.984;8.404;2024-02-21T05:31:56;16.00;;;9.07;;
13969;SDS011;7057;49.984;8.404;2024-02-21T05:34:25;17.90;;;9.63;;
13969;SDS011;7057;49.984;8.404;2024-02-21T05:36:53;12.23;;;8.10;;
13969;SDS011;7057;49.984;8.404;2024-02-21T05:39:20;14.63;;;8.20;;
13969;SDS011;7057;49.984;8.404;2024-02-21T05:41:48;15.00;;;8.80;;
13969;SDS011;7057;49.984;8.404;2024-02-21T05:44:16;13.77;;;7.83;;
13969;SDS011;7057;49.984;8.404;2024-02-21T05:46:44;11.23;;;8.73;;
13969;SDS011;7057;49.984;8.404;2024-02-21T05:49:12;17.57;;;9.53;;
13969;SDS011;7057;49.984;8.404;2024-02-21T05:51:41;13.27;;;9.37;;
13969;SDS011;7057;49.984;8.404;2024-02-21T05:54:08;16.40;;;9.33;;
13969;SDS011;7057;49.984;8.404;2024-02-21T05:56:36;14.67;;;8.90;;
13969;SDS011;7057;49.984;8.404;2024-02-21T05:59:04;15.37;;;9.57;;
13969;SDS011;7057;49.984;8.404;2024-02-21T06:01:31;17.83;;;9.43;;
13969;SDS011;7057;49.984;8.404;2024-02-21T06:03:59;20.83;;;9.03;;
13969;SDS011;7057;49.984;8.404;2024-02-21T06:06:26;17.53;;;9.27;;
13969;SDS011;7057;49.984;8.404;2024-02-21T06:08:55;17.90;;;9.33;;
13969;SDS011;7057;49.984;8.404;2024-02-21T06:11:24;19.47;;;9.83;;
13969;SDS011;7057;49.984;8.404;2024-02-21T06:13:51;20.00;;;9.27;;
13969;SDS011;7057;49.984;8.404;2024-02-21T06:16:19;16.23;;;9.33;;
13969;SDS011;7057;49.984;8.404;2024-02-21T06:18:46;16.43;;;9.47;;
13969;SDS011;7057;49.984;8.404;2024-02-21T06:21:14;14.47;;;9.30;;
13969;SDS011;7057;49.984;8.404;2024-02-21T06:23:42;18.67;;;9.83;;
13969;SDS011;7057;49.984;8.404;2024-02-21T06:26:11;16.93;;;9.60;;
13969;SDS011;7057;49.984;8.404;2024-02-21T06:28:38;17.87;;;9.53;;
13969;SDS011;7057;49.984;8.404;2024-02-21T06:31:06;16.83;;;9.80;;
13969;SDS011;7057;49.984;8.404;2024-02-21T06:33:33;16.67;;;9.73;;
13969;SDS011;7057;49.984;8.404;2024-02-21T06:36:01;17.27;;;11.10;;
13969;SDS011;7057;49.984;8.404;2024-02-21T06:38:28;19.63;;;10.23;;
13969;SDS011;7057;49.984;8.404;2024-02-21T06:40:56;16.63;;;11.07;;
13969;SDS011;7057;49.984;8.404;2024-02-21T06:43:27;19.23;;;10.77;;
13969;SDS011;7057;49.984;8.404;2024-02-21T06:45:54;22.47;;;11.07;;
13969;SDS011;7057;49.984;8.404;2024-02-21T06:48:22;16.97;;;10.57;;
13969;SDS011;7057;49.984;8.404;2024-02-21T06:50:49;18.57;;;10.70;;
13969;SDS011;7057;49.984;8.404;2024-02-21T06:53:17;15.47;;;10.67;;
13969;SDS011;7057;49.984;8.404;2024-02-21T06:55:44;17.53;;;10.63;;
13969;SDS011;7057;49.984;8.404;2024-02-21T06:58:12;18.17;;;11.20;;
13969;SDS011;7057;49.984;8.404;2024-02-21T07:00:42;16.27;;;10.30;;
13969;SDS011;7057;49.984;8.404;2024-02-21T07:03:10;18.17;;;11.07;;
13969;SDS011;7057;49.984;8.404;2024-02-21T07:05:37;18.37;;;10.63;;
13969;SDS011;7057;49.984;8.404;2024-02-21T07:08:05;16.20;;;10.40;;
13969;SDS011;7057;49.984;8.404;2024-02-21T07:10:32;19.57;;;10.20;;
13969;SDS011;7057;49.984;8.404;2024-02-21T07:13:00;15.23;;;9.60;;
13969;SDS011;7057;49.984;8.404;2024-02-21T07:15:28;13.50;;;9.53;;
13969;SDS011;7057;49.984;8.404;2024-02-21T07:17:57;18.53;;;9.70;;
13969;SDS011;7057;49.984;8.404;2024-02-21T07:20:28;17.83;;;9.33;;
13969;SDS011;7057;49.984;8.404;2024-02-21T07:22:55;17.97;;;9.37;;
13969;SDS011;7057;49.984;8.404;2024-02-21T07:25:23;15.80;;;8.33;;
13969;SDS011;7057;49.984;8.404;2024-02-21T07:27:50;12.90;;;8.13;;
13969;SDS011;7057;49.984;8.404;2024-02-21T07:30:17;17.13;;;7.53;;
13969;SDS011;7057;49.984;8.404;2024-02-21T07:32:45;17.87;;;7.43;;
13969;SDS011;7057;49.984;8.404;2024-02-21T07:35:14;14.70;;;6.83;;
13969;SDS011;7057;49.984;8.404;2024-02-21T07:37:41;11.93;;;6.73;;
13969;SDS011;7057;49.984;8.404;2024-02-21T07:40:12;12.27;;;6.23;;
13969;SDS011;7057;49.984;8.404;2024-02-21T07:42:40;12.17;;;6.37;;
13969;SDS011;7057;49.984;8.404;2024-02-21T07:45:07;12.80;;;5.83;;
13969;SDS011;7057;49.984;8.404;2024-02-21T07:47:35;13.47;;;5.90;;
13969;SDS011;7057;49.984;8.404;2024-02-21T07:50:03;13.07;;;6.40;;
13969;SDS011;7057;49.984;8.404;2024-02-21T07:52:32;13.27;;;6.10;;
13969;SDS011;7057;49.984;8.404;2024-02-21T07:54:59;11.83;;;5.63;;
13969;SDS011;7057;49.984;8.404;2024-02-21T07:57:27;11.47;;;6.13;;
13969;SDS011;7057;49.984;8.404;2024-02-21T07:59:54;11.17;;;5.70;;
13969;SDS011;7057;49.984;8.404;2024-02-21T08:02:22;8.97;;;5.20;;
13969;SDS011;7057;49.984;8.404;2024-02-21T08:04:49;12.47;;;5.80;;
13969;SDS011;7057;49.984;8.404;2024-02-21T08:07:17;11.67;;;5.47;;
13969;SDS011;7057;49.984;8.404;2024-02-21T08:09:45;11.90;;;5.73;;
13969;SDS011;7057;49.984;8.404;2024-02-21T08:12:13;13.50;;;5.50;;
13969;SDS011;7057;49.984;8.404;2024-02-21T08:14:40;11.93;;;5.40;;
13969;SDS011;7057;49.984;8.404;2024-02-21T08:17:09;10.37;;;4.87;;
13969;SDS011;7057;49.984;8.404;2024-02-21T08:19:36;12.63;;;5.43;;
13969;SDS011;7057;49.984;8.404;2024-02-21T08:22:04;11.10;;;5.10;;
13969;SDS011;7057;49.984;8.404;2024-02-21T08:24:32;9.30;;;5.03;;
13969;SDS011;7057;49.984;8.404;2024-02-21T08:27:01;10.00;;;5.27;;
13969;SDS011;7057;49.984;8.404;2024-02-21T08:29:29;11.80;;;5.30;;
13969;SDS011;7057;49.984;8.404;2024-02-21T08:31:56;10.87;;;4.97;;
13969;SDS011;7057;49.984;8.404;2024-02-21T08:34:24;12.30;;;4.70;;
13969;SDS011;7057;49.984;8.404;2024-02-21T08:36:51;10.03;;;5.13;;
13969;SDS011;7057;49.984;8.404;2024-02-21T08:39:19;10.07;;;4.60;;
13969;SDS011;7057;49.984;8.404;2024-02-21T08:41:46;9.27;;;4.87;;
13969;SDS011;7057;49.984;8.404;2024-02-21T08:44:15;9.93;;;4.60;;
13969;SDS011;7057;49.984;8.404;2024-02-21T08:46:42;13.90;;;4.93;;
13969;SDS011;7057;49.984;8.404;2024-02-21T08:49:10;9.20;;;4.90;;
13969;SDS011;7057;49.984;8.404;2024-02-21T08:51:39;8.13;;;4.17;;
13969;SDS011;7057;49.984;8.404;2024-02-21T08:54:06;9.53;;;4.63;;
13969;SDS011;7057;49.984;8.404;2024-02-21T08:56:34;10.10;;;4.57;;
13969;SDS011;7057;49.984;8.404;2024-02-21T08:59:01;13.13;;;4.63;;
13969;SDS011;7057;49.984;8.404;2024-02-21T09:01:30;11.70;;;4.20;;
13969;SDS011;7057;49.984;8.404;2024-02-21T09:03:59;11.97;;;4.83;;
13969;SDS011;7057;49.984;8.404;2024-02-21T09:06:28;8.67;;;4.40;;
13969;SDS011;7057;49.984;8.404;2024-02-21T09:08:56;10.10;;;4.67;;
13969;SDS011;7057;49.984;8.404;2024-02-21T09:11:23;11.10;;;4.90;;
13969;SDS011;7057;49.984;8.404;2024-02-21T09:13:52;9.30;;;4.03;;
13969;SDS011;7057;49.984;8.404;2024-02-21T09:16:20;10.70;;;5.10;;
13969;SDS011;7057;49.984;8.404;2024-02-21T09:18:49;12.50;;;4.70;;
13969;SDS011;7057;49.984;8.404;2024-02-21T09:21:18;8.73;;;4.30;;
13969;SDS011;7057;49.984;8.404;2024-02-21T09:23:45;8.90;;;4.20;;
13969;SDS011;7057;49.984;8.404;2024-02-21T09:26:13;10.03;;;4.33;;
13969;SDS011;7057;49.984;8.404;2024-02-21T09:28:42;9.70;;;4.13;;
13969;SDS011;7057;49.984;8.404;2024-02-21T09:31:10;9.97;;;3.93;;
13969;SDS011;7057;49.984;8.404;2024-02-21T09:33:38;9.00;;;4.30;;
13969;SDS011;7057;49.984;8.404;2024-02-21T09:36:08;9.60;;;4.33;;
13969;SDS011;7057;49.984;8.404;2024-02-21T09:38:36;10.80;;;4.20;;
13969;SDS011;7057;49.984;8.404;2024-02-21T09:41:06;12.17;;;4.60;;
13969;SDS011;7057;49.984;8.404;2024-02-21T09:43:35;6.77;;;3.70;;
13969;SDS011;7057;49.984;8.404;2024-02-21T09:46:04;7.87;;;3.83;;
13969;SDS011;7057;49.984;8.404;2024-02-21T09:48:37;8.40;;;3.97;;
13969;SDS011;7057;49.984;8.404;2024-02-21T09:51:08;12.03;;;4.97;;
13969;SDS011;7057;49.984;8.404;2024-02-21T09:53:37;8.13;;;4.37;;
13969;SDS011;7057;49.984;8.404;2024-02-21T09:56:05;7.90;;;4.60;;
13969;SDS011;7057;49.984;8.404;2024-02-21T09:58:35;8.70;;;4.10;;
13969;SDS011;7057;49.984;8.404;2024-02-21T10:01:02;10.23;;;4.33;;
13969;SDS011;7057;49.984;8.404;2024-02-21T10:03:32;13.03;;;4.40;;
13969;SDS011;7057;49.984;8.404;2024-02-21T10:06:00;7.70;;;4.17;;
13969;SDS011;7057;49.984;8.404;2024-02-21T10:08:29;11.77;;;4.33;;
13969;SDS011;7057;49.984;8.404;2024-02-21T10:10:56;11.17;;;4.20;;
13969;SDS011;7057;49.984;8.404;2024-02-21T10:13:25;9.30;;;4.23;;
13969;SDS011;7057;49.984;8.404;2024-02-21T10:16:03;9.80;;;4.50;;
13969;SDS011;7057;49.984;8.404;2024-02-21T10:18:30;12.47;;;4.63;;
13969;SDS011;7057;49.984;8.404;2024-02-21T10:21:05;9.17;;;4.20;;
13969;SDS011;7057;49.984;8.404;2024-02-21T10:23:43;9.63;;;4.40;;
13969;SDS011;7057;49.984;8.404;2024-02-21T10:26:10;10.67;;;3.90;;
13969;SDS011;7057;49.984;8.404;2024-02-21T10:28:38;8.30;;;4.20;;
13969;SDS011;7057;49.984;8.404;2024-02-21T10:31:07;10.10;;;4.50;;
13969;SDS011;7057;49.984;8.404;2024-02-21T10:33:36;9.23;;;4.70;;
13969;SDS011;7057;49.984;8.404;2024-02-21T10:36:07;12.27;;;4.27;;
13969;SDS011;7057;49.984;8.404;2024-02-21T10:38:36;9.40;;;4.00;;
13969;SDS011;7057;49.984;8.404;2024-02-21T10:41:05;9.13;;;3.43;;
13969;SDS011;7057;49.984;8.404;2024-02-21T10:43:35;12.03;;;4.37;;
13969;SDS011;7057;49.984;8.404;2024-02-21T10:46:05;10.37;;;4.40;;
13969;SDS011;7057;49.984;8.404;2024-02-21T10:48:38;9.73;;;3.80;;
13969;SDS011;7057;49.984;8.404;2024-02-21T10:51:12;10.37;;;3.43;;
13969;SDS011;7057;49.984;8.404;2024-02-21T10:53:44;7.90;;;3.80;;
13969;SDS011;7057;49.984;8.404;2024-02-21T10:56:22;11.67;;;3.83;;
13969;SDS011;7057;49.984;8.404;2024-02-21T10:58:53;8.27;;;3.67;;
13969;SDS011;7057;49.984;8.404;2024-02-21T11:01:22;9.33;;;3.53;;
13969;SDS011;7057;49.984;8.404;2024-02-21T11:03:52;7.00;;;3.63;;
13969;SDS011;7057;49.984;8.404;2024-02-21T11:06:21;10.57;;;3.70;;
13969;SDS011;7057;49.984;8.404;2024-02-21T11:08:59;12.17;;;3.80;;
13969;SDS011;7057;49.984;8.404;2024-02-21T11:11:28;12.73;;;4.73;;
13969;SDS011;7057;49.984;8.404;2024-02-21T11:14:03;12.93;;;5.10;;
13969;SDS011;7057;49.984;8.404;2024-02-21T11:16:35;10.43;;;3.97;;
13969;SDS011;7057;49.984;8.404;2024-02-21T11:19:06;8.03;;;3.90;;
13969;SDS011;7057;49.984;8.404;2024-02-21T11:21:34;9.43;;;3.97;;
13969;SDS011;7057;49.984;8.404;2024-02-21T11:24:02;8.47;;;3.70;;
13969;SDS011;7057;49.984;8.404;2024-02-21T11:26:32;7.70;;;3.70;;
13969;SDS011;7057;49.984;8.404;2024-02-21T11:29:00;9.40;;;3.80;;
13969;SDS011;7057;49.984;8.404;2024-02-21T11:31:38;9.60;;;3.97;;
13969;SDS011;7057;49.984;8.404;2024-02-21T11:34:08;10.00;;;3.60;;
13969;SDS011;7057;49.984;8.404;2024-02-21T11:36:36;10.23;;;3.73;;
13969;SDS011;7057;49.984;8.404;2024-02-21T11:39:17;8.50;;;3.77;;
13969;SDS011;7057;49.984;8.404;2024-02-21T11:41:47;12.03;;;4.10;;
13969;SDS011;7057;49.984;8.404;2024-02-21T11:44:15;14.17;;;4.40;;
13969;SDS011;7057;49.984;8.404;2024-02-21T11:46:42;9.97;;;4.60;;
13969;SDS011;7057;49.984;8.404;2024-02-21T11:49:10;15.87;;;4.43;;
13969;SDS011;7057;49.984;8.404;2024-02-21T11:51:37;10.83;;;4.57;;
13969;SDS011;7057;49.984;8.404;2024-02-21T11:54:05;12.10;;;4.50;;
13969;SDS011;7057;49.984;8.404;2024-02-21T11:56:34;10.40;;;4.00;;
13969;SDS011;7057;49.984;8.404;2024-02-21T11:59:03;8.60;;;3.67;;
13969;SDS011;7057;49.984;8.404;2024-02-21T12:01:31;10.13;;;4.40;;
13969;SDS011;7057;49.984;8.404;2024-02-21T12:03:59;12.23;;;3.87;;
13969;SDS011;7057;49.984;8.404;2024-02-21T12:06:26;9.23;;;3.93;;
13969;SDS011;7057;49.984;8.404;2024-02-21T12:08:57;9.93;;;3.80;;
13969;SDS011;7057;49.984;8.404;2024-02-21T12:11:25;8.90;;;3.60;;
13969;SDS011;7057;49.984;8.404;2024-02-21T12:13:59;9.40;;;4.23;;
13969;SDS011;7057;49.984;8.404;2024-02-21T12:16:30;10.90;;;4.00;;
13969;SDS011;7057;49.984;8.404;2024-02-21T12:18:58;11.20;;;4.30;;
13969;SDS011;7057;49.984;8.404;2024-02-21T12:21:26;8.63;;;3.43;;
13969;SDS011;7057;49.984;8.404;2024-02-21T12:23:54;10.13;;;4.20;;
13969;SDS011;7057;49.984;8.404;2024-02-21T12:26:22;9.77;;;4.23;;
13969;SDS011;7057;49.984;8.404;2024-02-21T12:28:50;10.80;;;4.07;;
13969;SDS011;7057;49.984;8.404;2024-02-21T12:31:17;11.17;;;3.17;;
13969;SDS011;7057;49.984;8.404;2024-02-21T12:33:46;7.93;;;3.90;;
13969;SDS011;7057;49.984;8.404;2024-02-21T12:36:13;8.47;;;3.63;;
13969;SDS011;7057;49.984;8.404;2024-02-21T12:38:41;9.47;;;3.80;;
13969;SDS011;7057;49.984;8.404;2024-02-21T12:41:09;10.40;;;3.90;;
13969;SDS011;7057;49.984;8.404;2024-02-21T12:43:36;8.80;;;3.93;;
13969;SDS011;7057;49.984;8.404;2024-02-21T12:46:04;10.37;;;3.27;;
13969;SDS011;7057;49.984;8.404;2024-02-21T12:48:32;8.83;;;3.57;;
13969;SDS011;7057;49.984;8.404;2024-02-21T12:51:01;9.57;;;3.60;;
13969;SDS011;7057;49.984;8.404;2024-02-21T12:53:29;9.03;;;3.60;;
13969;SDS011;7057;49.984;8.404;2024-02-21T12:55:57;12.47;;;4.10;;
13969;SDS011;7057;49.984;8.404;2024-02-21T12:58:24;9.20;;;3.93;;
13969;SDS011;7057;49.984;8.404;2024-02-21T13:00:52;7.87;;;3.47;;
13969;SDS011;7057;49.984;8.404;2024-02-21T13:03:20;11.77;;;3.57;;
13969;SDS011;7057;49.984;8.404;2024-02-21T13:05:47;9.07;;;3.70;;
13969;SDS011;7057;49.984;8.404;2024-02-21T13:08:16;10.70;;;3.70;;
13969;SDS011;7057;49.984;8.404;2024-02-21T13:10:47;10.67;;;3.57;;
13969;SDS011;7057;49.984;8.404;2024-02-21T13:13:15;10.00;;;3.47;;
13969;SDS011;7057;49.984;8.404;2024-02-21T13:15:43;8.47;;;3.00;;
13969;SDS011;7057;49.984;8.404;2024-02-21T13:18:10;11.13;;;3.30;;
13969;SDS011;7057;49.984;8.404;2024-02-21T13:20:38;8.73;;;3.10;;
13969;SDS011;7057;49.984;8.404;2024-02-21T13:23:05;8.63;;;3.27;;
13969;SDS011;7057;49.984;8.404;2024-02-21T13:25:34;7.47;;;2.93;;
13969;SDS011;7057;49.984;8.404;2024-02-21T13:28:01;11.83;;;3.63;;
13969;SDS011;7057;49.984;8.404;2024-02-21T13:30:29;9.03;;;3.17;;
13969;SDS011;7057;49.984;8.404;2024-02-21T13:32:56;9.33;;;3.50;;
13969;SDS011;7057;49.984;8.404;2024-02-21T13:35:24;9.20;;;3.10;;
13969;SDS011;7057;49.984;8.404;2024-02-21T13:37:53;6.47;;;3.23;;
13969;SDS011;7057;49.984;8.404;2024-02-21T13:40:21;7.87;;;3.30;;
13969;SDS011;7057;49.984;8.404;2024-02-21T13:42:49;9.30;;;3.30;;
13969;SDS011;7057;49.984;8.404;2024-02-21T13:45:17;6.33;;;3.00;;
13969;SDS011;7057;49.984;8.404;2024-02-21T13:47:45;7.27;;;3.00;;
13969;SDS011;7057;49.984;8.404;2024-02-21T13:50:13;11.67;;;3.87;;
13969;SDS011;7057;49.984;8.404;2024-02-21T13:52:41;9.13;;;3.20;;
13969;SDS011;7057;49.984;8.404;2024-02-21T13:55:08;8.30;;;2.97;;
13969;SDS011;7057;49.984;8.404;2024-02-21T13:57:36;9.20;;;3.30;;
13969;SDS011;7057;49.984;8.404;2024-02-21T14:00:05;7.77;;;3.10;;
13969;SDS011;7057;49.984;8.404;2024-02-21T14:02:36;8.43;;;3.33;;
13969;SDS011;7057;49.984;8.404;2024-02-21T14:05:04;10.30;;;3.13;;
13969;SDS011;7057;49.984;8.404;2024-02-21T14:07:32;9.73;;;3.53;;
13969;SDS011;7057;49.984;8.404;2024-02-21T14:09:59;14.20;;;3.30;;
13969;SDS011;7057;49.984;8.404;2024-02-21T14:12:27;8.57;;;3.33;;
13969;SDS011;7057;49.984;8.404;2024-02-21T14:14:54;6.63;;;2.80;;
13969;SDS011;7057;49.984;8.404;2024-02-21T14:17:25;5.90;;;2.77;;
13969;SDS011;7057;49.984;8.404;2024-02-21T14:19:52;7.57;;;2.83;;
13969;SDS011;7057;49.984;8.404;2024-02-21T14:22:20;8.20;;;3.40;;
13969;SDS011;7057;49.984;8.404;2024-02-21T14:24:47;7.53;;;3.00;;
13969;SDS011;7057;49.984;8.404;2024-02-21T14:27:15;9.93;;;3.20;;
13969;SDS011;7057;49.984;8.404;2024-02-21T14:29:42;9.90;;;3.03;;
13969;SDS011;7057;49.984;8.404;2024-02-21T14:32:10;6.47;;;3.10;;
13969;SDS011;7057;49.984;8.404;2024-02-21T14:34:41;8.60;;;2.93;;
13969;SDS011;7057;49.984;8.404;2024-02-21T14:37:10;8.10;;;3.30;;
13969;SDS011;7057;49.984;8.404;2024-02-21T14:39:37;8.37;;;2.97;;
13969;SDS011;7057;49.984;8.404;2024-02-21T14:42:05;7.10;;;2.83;;
13969;SDS011;7057;49.984;8.404;2024-02-21T14:44:34;9.60;;;2.90;;
13969;SDS011;7057;49.984;8.404;2024-02-21T14:47:02;7.60;;;2.87;;
13969;SDS011;7057;49.984;8.404;2024-02-21T14:49:30;11.50;;;3.13;;
13969;SDS011;7057;49.984;8.404;2024-02-21T14:51:58;9.10;;;3.73;;
13969;SDS011;7057;49.984;8.404;2024-02-21T14:54:26;7.87;;;3.93;;
13969;SDS011;7057;49.984;8.404;2024-02-21T14:56:53;8.90;;;4.10;;